Aveley, United Kingdom
Current Conditions -  °F | °C
As of 7:50 AM on Thursday 27 Nov 2014 (Local Time) from EGLC Reporting Station
Light Rain Light Rain  
Wind Chill: 50°   Ceiling: 900
Heat Index: 50°   Visibility: 3mi
Dew Point: 50°   Wind: 9mph
Humidity: 100%   Direction: 250°WSW
Pressure: 29.62"   Gusts: NA
Location:  51.5°N, 0.25°E
Report Text: EGLC 270750Z 25008KT 5000 -RA FEW002 BKN009 10/10 Q1003
Loading
Personal Weather Stations






























Interactive Weather Map New forecast layout! Learn more

10-Day Weather Forecast

Advertisements
Track Severe Weather on mobile